createdAt,value
2018-08-12T00:00:29.886Z,33
2018-08-12T00:01:31.766Z,33
2018-08-12T00:02:33.664Z,33
2018-08-12T00:03:35.819Z,33
2018-08-12T00:04:37.995Z,33
2018-08-12T00:05:39.900Z,33
2018-08-12T00:06:42.070Z,33
2018-08-12T00:07:43.967Z,33
2018-08-12T00:08:45.896Z,33
2018-08-12T00:09:47.796Z,33
2018-08-12T00:10:50.247Z,33
2018-08-12T00:11:52.406Z,33
2018-08-12T00:12:54.304Z,33
2018-08-12T00:13:56.485Z,33
2018-08-12T00:14:58.673Z,33
2018-08-12T00:16:01.116Z,33
2018-08-12T00:17:03.555Z,33
2018-08-12T00:18:05.733Z,33
2018-08-12T00:19:08.182Z,33
2018-08-12T00:20:10.316Z,33
2018-08-12T00:21:12.195Z,33
2018-08-12T00:22:14.391Z,33
2018-08-12T00:23:16.557Z,33
2018-08-12T00:24:18.739Z,33
2018-08-12T00:25:20.923Z,33.1
2018-08-12T00:26:23.101Z,33.1
2018-08-12T00:27:25.279Z,33.1
2018-08-12T00:28:27.464Z,33.1
2018-08-12T00:29:29.905Z,33.1
2018-08-12T00:30:32.087Z,33.1
2018-08-12T00:31:34.257Z,33.1
2018-08-12T00:32:36.435Z,33.1
2018-08-12T00:33:38.623Z,33.1
2018-08-12T00:34:41.065Z,33.1
2018-08-12T00:35:43.253Z,33.1
2018-08-12T00:36:45.164Z,33.1
2018-08-12T00:37:47.069Z,33.1
2018-08-12T00:38:49.268Z,33.1
2018-08-12T00:39:51.708Z,33.1
2018-08-12T00:40:53.866Z,33.1
2018-08-12T00:41:56.312Z,33.1
2018-08-12T00:42:58.476Z,33.2
2018-08-12T00:44:00.385Z,33.1
2018-08-12T00:45:02.269Z,33.2
2018-08-12T00:46:04.443Z,33.2
2018-08-12T00:47:06.358Z,33.2
2018-08-12T00:48:08.818Z,33.2
2018-08-12T00:49:11.276Z,33.2
2018-08-12T00:50:13.471Z,33.2
2018-08-12T00:51:15.376Z,33.2
2018-08-12T00:52:17.823Z,33.2
2018-08-12T00:53:20.305Z,33.2
2018-08-12T00:54:22.459Z,33.2
2018-08-12T00:55:24.908Z,33.2
2018-08-12T00:56:27.081Z,33.2
2018-08-12T00:57:29.256Z,33.2
2018-08-12T00:58:31.713Z,33.2
2018-08-12T00:59:34.157Z,33.2
2018-08-12T01:00:35.786Z,33.2
2018-08-12T01:01:38.234Z,33.2
2018-08-12T01:02:40.115Z,33.2
2018-08-12T01:03:41.999Z,33.2
2018-08-12T01:04:43.906Z,33.2
2018-08-12T01:05:46.360Z,33.2
2018-08-12T01:06:48.508Z,33.2
2018-08-12T01:07:50.697Z,33.2
2018-08-12T01:08:52.878Z,33.2
2018-08-12T01:09:55.325Z,33.2
2018-08-12T01:10:56.930Z,33.2
2018-08-12T01:11:59.379Z,33.2
2018-08-12T01:13:01.548Z,33.2
2018-08-12T01:14:03.731Z,33.2
2018-08-12T01:15:06.210Z,33.2
2018-08-12T01:16:08.646Z,33.2
2018-08-12T01:17:11.091Z,33.2
2018-08-12T01:18:13.255Z,33.2
2018-08-12T01:19:15.446Z,33.3
2018-08-12T01:20:17.906Z,33.3
2018-08-12T01:21:20.352Z,33.3
2018-08-12T01:22:22.254Z,33.3
2018-08-12T01:23:24.716Z,33.3
2018-08-12T01:24:27.164Z,33.3
2018-08-12T01:25:28.541Z,33.2
2018-08-12T01:26:30.971Z,33.2
2018-08-12T01:27:33.416Z,33.2
2018-08-12T01:28:35.867Z,33.2
2018-08-12T01:29:38.046Z,33.2
2018-08-12T01:30:40.484Z,33.2
2018-08-12T01:31:42.653Z,33.3
2018-08-12T01:32:45.118Z,33.3
2018-08-12T01:33:47.007Z,33.3
2018-08-12T01:34:49.452Z,33.2
2018-08-12T01:35:52.022Z,33.2
2018-08-12T01:36:54.286Z,33.2
2018-08-12T01:37:56.742Z,33.3
2018-08-12T01:38:59.187Z,33.2
2018-08-12T01:40:01.335Z,33.2
2018-08-12T01:41:03.524Z,33.2
2018-08-12T01:42:05.674Z,33.2
2018-08-12T01:43:08.126Z,33.2
2018-08-12T01:44:10.566Z,33.2
2018-08-12T01:45:12.180Z,33.3
2018-08-12T01:46:14.345Z,33.2
2018-08-12T01:47:16.527Z,33.2
2018-08-12T01:48:18.712Z,33.2
2018-08-12T01:49:20.885Z,33.2
2018-08-12T01:50:23.335Z,33.2
2018-08-12T01:51:25.512Z,33.2
2018-08-12T01:52:27.669Z,33.3
2018-08-12T01:53:29.571Z,33.2
2018-08-12T01:54:32.012Z,33.2
2018-08-12T01:55:34.461Z,33.2
2018-08-12T01:56:36.614Z,33.2
2018-08-12T01:57:38.760Z,33.2
2018-08-12T01:58:40.661Z,33.3
2018-08-12T01:59:43.109Z,33.2
2018-08-12T02:00:45.295Z,33.2
2018-08-12T02:01:47.446Z,33.2
2018-08-12T02:02:49.893Z,33.2
2018-08-12T02:03:52.061Z,33.2
2018-08-12T02:04:54.505Z,33.2
2018-08-12T02:05:56.960Z,33.2
2018-08-12T02:06:58.870Z,33.2
2018-08-12T02:08:00.780Z,33.2
2018-08-12T02:09:02.971Z,33.3
2018-08-12T02:10:05.414Z,33.2
2018-08-12T02:11:07.866Z,33.2
2018-08-12T02:12:10.311Z,33.3
2018-08-12T02:13:12.757Z,33.3
2018-08-12T02:14:14.690Z,33.3
2018-08-12T02:15:16.846Z,33.3
2018-08-12T02:16:18.473Z,33.3
2018-08-12T02:17:20.086Z,33.3
2018-08-12T02:18:22.303Z,33.3
2018-08-12T02:19:24.450Z,33.3
2018-08-12T02:20:26.646Z,33.3
2018-08-12T02:21:29.090Z,33.3
2018-08-12T02:22:30.993Z,33.3
2018-08-12T02:23:33.160Z,33.3
2018-08-12T02:24:35.363Z,33.3
2018-08-12T02:25:37.805Z,33.3
2018-08-12T02:26:39.719Z,33.3
2018-08-12T02:27:41.905Z,33.3
2018-08-12T02:28:44.376Z,33.3
2018-08-12T02:29:46.544Z,33.3
2018-08-12T02:30:48.711Z,33.3
2018-08-12T02:31:50.874Z,33.3
2018-08-12T02:32:53.053Z,33.3
2018-08-12T02:33:55.521Z,33.3
2018-08-12T02:34:57.961Z,33.3
2018-08-12T02:36:00.137Z,33.3
2018-08-12T02:37:02.047Z,33.3
2018-08-12T02:38:03.949Z,33.3
2018-08-12T02:39:06.386Z,33.3
2018-08-12T02:40:08.539Z,33.3
2018-08-12T02:41:10.716Z,33.3
2018-08-12T02:42:12.624Z,33.3
2018-08-12T02:43:14.799Z,33.3
2018-08-12T02:44:17.235Z,33.3
2018-08-12T02:45:19.130Z,33.3
2018-08-12T02:46:21.568Z,33.3
2018-08-12T02:47:24.037Z,33.3
2018-08-12T02:48:25.941Z,33.3
2018-08-12T02:49:27.848Z,33.3
2018-08-12T02:50:30.300Z,33.3
2018-08-12T02:51:32.750Z,33.3
2018-08-12T02:52:34.894Z,33.3
2018-08-12T02:53:36.529Z,33.3
2018-08-12T02:54:38.980Z,33.3
2018-08-12T02:55:41.415Z,33.3
2018-08-12T02:56:43.307Z,33.3
2018-08-12T02:57:45.456Z,33.3
2018-08-12T02:58:47.909Z,33.3
2018-08-12T02:59:50.086Z,33.3
2018-08-12T03:00:52.526Z,33.3
2018-08-12T03:01:54.700Z,33.3
2018-08-12T03:02:56.857Z,33.3
2018-08-12T03:03:58.752Z,33.3
2018-08-12T03:05:00.973Z,33.3
2018-08-12T03:06:03.146Z,33.3
2018-08-12T03:07:05.329Z,33.3
2018-08-12T03:08:07.235Z,33.3
2018-08-12T03:09:09.421Z,33.3
2018-08-12T03:10:11.568Z,33.2
2018-08-12T03:11:14.035Z,33.2
2018-08-12T03:12:16.186Z,33.2
2018-08-12T03:13:18.081Z,33.2
2018-08-12T03:14:20.254Z,33.2
2018-08-12T03:15:22.407Z,33.2
2018-08-12T03:16:24.858Z,33.2
2018-08-12T03:17:26.500Z,33.2
2018-08-12T03:18:28.961Z,33.2
2018-08-12T03:19:31.144Z,33.1
2018-08-12T03:20:33.309Z,33.1
2018-08-12T03:21:35.489Z,33.1
2018-08-12T03:22:38.067Z,33.1
2018-08-12T03:23:40.247Z,33.1
2018-08-12T03:24:42.129Z,33.1
2018-08-12T03:25:44.299Z,33.1
2018-08-12T03:26:46.742Z,33.1
2018-08-12T03:27:49.186Z,33.1
2018-08-12T03:28:51.628Z,33.1
2018-08-12T03:29:53.908Z,33
2018-08-12T03:30:56.397Z,33
2018-08-12T03:31:58.841Z,33
2018-08-12T03:33:01.294Z,33
2018-08-12T03:34:03.472Z,33
2018-08-12T03:35:05.636Z,33
2018-08-12T03:36:08.091Z,33
2018-08-12T03:37:09.974Z,33
2018-08-12T03:38:12.138Z,33
2018-08-12T03:39:14.026Z,33
2018-08-12T03:40:15.932Z,33
2018-08-12T03:41:18.113Z,33
2018-08-12T03:42:20.555Z,33
2018-08-12T03:43:22.997Z,33
2018-08-12T03:44:25.438Z,33
2018-08-12T03:45:27.636Z,33
2018-08-12T03:46:29.768Z,32.9
2018-08-12T03:47:31.677Z,32.9
2018-08-12T03:48:33.866Z,32.9
2018-08-12T03:49:36.305Z,32.9
2018-08-12T03:50:38.756Z,32.9
2018-08-12T03:51:41.210Z,32.9
2018-08-12T03:52:43.646Z,32.9
2018-08-12T03:53:45.810Z,32.9
2018-08-12T03:54:47.996Z,32.9
2018-08-12T03:55:50.189Z,32.9
2018-08-12T03:56:52.377Z,32.9
2018-08-12T03:57:54.536Z,32.9
2018-08-12T03:58:55.906Z,32.9
2018-08-12T03:59:58.088Z,32.9
2018-08-12T04:00:59.987Z,32.9
2018-08-12T04:02:02.429Z,32.9
2018-08-12T04:03:04.901Z,32.9
2018-08-12T04:04:07.355Z,32.9
2018-08-12T04:05:09.226Z,32.9
2018-08-12T04:06:11.129Z,32.9
2018-08-12T04:07:13.037Z,32.9
2018-08-12T04:08:15.210Z,32.9
2018-08-12T04:09:17.652Z,32.9
2018-08-12T04:10:20.103Z,32.9
2018-08-12T04:11:22.558Z,32.9
2018-08-12T04:12:24.999Z,32.9
2018-08-12T04:13:27.200Z,32.9
2018-08-12T04:14:29.374Z,32.9
2018-08-12T04:15:31.825Z,32.9
2018-08-12T04:16:34.285Z,32.8
2018-08-12T04:17:36.463Z,32.9
2018-08-12T04:18:38.638Z,32.8
2018-08-12T04:19:41.072Z,32.9
2018-08-12T04:20:42.442Z,32.8
2018-08-12T04:21:44.346Z,32.8
2018-08-12T04:22:46.532Z,32.8
2018-08-12T04:23:48.696Z,32.8
2018-08-12T04:24:50.869Z,32.8
2018-08-12T04:25:53.036Z,32.8
2018-08-12T04:26:54.941Z,32.8
2018-08-12T04:27:57.114Z,32.8
2018-08-12T04:28:59.560Z,32.8
2018-08-12T04:30:01.736Z,32.8
2018-08-12T04:31:03.917Z,32.8
2018-08-12T04:32:06.095Z,32.8
2018-08-12T04:33:08.536Z,32.8
2018-08-12T04:34:09.896Z,32.8
2018-08-12T04:35:12.083Z,32.8
2018-08-12T04:36:14.555Z,32.8
2018-08-12T04:37:16.465Z,32.8
2018-08-12T04:38:18.650Z,32.8
2018-08-12T04:39:21.095Z,32.8
2018-08-12T04:40:23.011Z,32.8
2018-08-12T04:41:24.905Z,32.8
2018-08-12T04:42:27.355Z,32.8
2018-08-12T04:43:29.519Z,32.8
2018-08-12T04:44:31.681Z,32.8
2018-08-12T04:45:33.859Z,32.8
2018-08-12T04:46:35.738Z,32.8
2018-08-12T04:47:38.165Z,32.8
2018-08-12T04:48:40.048Z,32.8
2018-08-12T04:49:42.515Z,32.8
2018-08-12T04:50:44.422Z,32.8
2018-08-12T04:51:46.588Z,32.8
2018-08-12T04:52:49.038Z,32.8
2018-08-12T04:53:51.204Z,32.8
2018-08-12T04:54:53.665Z,32.8
2018-08-12T04:55:55.853Z,32.8
2018-08-12T04:56:58.301Z,32.8
2018-08-12T04:58:00.185Z,32.8
2018-08-12T04:59:02.636Z,32.8
2018-08-12T05:00:05.079Z,32.8
2018-08-12T05:01:07.527Z,32.8
2018-08-12T05:02:09.969Z,32.8
2018-08-12T05:03:12.424Z,32.8
2018-08-12T05:04:14.601Z,32.8
2018-08-12T05:05:17.073Z,32.8
2018-08-12T05:06:19.521Z,32.8
2018-08-12T05:07:22.050Z,32.8
2018-08-12T05:08:24.500Z,32.8
2018-08-12T05:09:26.944Z,32.8
2018-08-12T05:10:29.399Z,32.8
2018-08-12T05:11:31.853Z,32.8
2018-08-12T05:12:33.725Z,32.8
2018-08-12T05:13:36.177Z,32.8
2018-08-12T05:14:38.620Z,32.8
2018-08-12T05:15:41.080Z,32.8
2018-08-12T05:16:42.987Z,32.8
2018-08-12T05:17:45.167Z,32.8
2018-08-12T05:18:47.330Z,32.8
2018-08-12T05:19:48.974Z,32.8
2018-08-12T05:20:51.127Z,32.8
2018-08-12T05:21:53.301Z,32.8
2018-08-12T05:22:55.467Z,32.8
2018-08-12T05:23:57.626Z,32.8
2018-08-12T05:25:00.070Z,32.8
2018-08-12T05:26:01.971Z,32.8
2018-08-12T05:27:04.175Z,32.8
2018-08-12T05:28:06.627Z,32.8
2018-08-12T05:29:08.797Z,32.8
2018-08-12T05:30:10.981Z,32.8
2018-08-12T05:31:13.152Z,32.7
2018-08-12T05:32:15.336Z,32.7
2018-08-12T05:33:17.231Z,32.7
2018-08-12T05:34:19.125Z,32.7
2018-08-12T05:35:21.287Z,32.7
2018-08-12T05:36:23.739Z,32.7
2018-08-12T05:37:25.906Z,32.7
2018-08-12T05:38:28.358Z,32.7
2018-08-12T05:39:30.807Z,32.7
2018-08-12T05:40:33.262Z,32.7
2018-08-12T05:41:35.713Z,32.7
2018-08-12T05:42:37.312Z,32.7
2018-08-12T05:43:39.749Z,32.7
2018-08-12T05:44:42.197Z,32.7
2018-08-12T05:45:44.651Z,32.7
2018-08-12T05:46:46.566Z,32.7
2018-08-12T05:47:49.020Z,32.7
2018-08-12T05:48:51.472Z,32.7
2018-08-12T05:49:53.932Z,32.7
2018-08-12T05:50:56.145Z,32.7
2018-08-12T05:51:58.362Z,32.7
2018-08-12T05:53:00.526Z,32.7
2018-08-12T05:54:02.981Z,32.7
2018-08-12T05:55:05.432Z,32.7
2018-08-12T05:56:07.890Z,32.7
2018-08-12T05:57:10.491Z,32.7
2018-08-12T05:58:12.795Z,32.7
2018-08-12T05:59:14.981Z,32.7
2018-08-12T06:00:17.432Z,32.7
2018-08-12T06:01:19.620Z,32.7
2018-08-12T06:02:21.795Z,32.6
2018-08-12T06:03:23.980Z,32.7
2018-08-12T06:04:26.149Z,32.6
2018-08-12T06:05:28.331Z,32.6
2018-08-12T06:06:30.782Z,32.6
2018-08-12T06:07:32.940Z,32.6
2018-08-12T06:08:35.398Z,32.6
2018-08-12T06:09:37.571Z,32.6
2018-08-12T06:10:39.475Z,32.6
2018-08-12T06:11:41.387Z,32.6
2018-08-12T06:12:43.844Z,32.6
2018-08-12T06:13:46.287Z,32.6
2018-08-12T06:14:48.456Z,32.6
2018-08-12T06:15:50.907Z,32.6
2018-08-12T06:16:53.103Z,32.6
2018-08-12T06:17:54.986Z,32.6
2018-08-12T06:18:56.873Z,32.6
2018-08-12T06:19:59.060Z,32.6
2018-08-12T06:21:01.237Z,32.6
2018-08-12T06:22:03.417Z,32.6
2018-08-12T06:23:05.601Z,32.6
2018-08-12T06:24:08.040Z,32.6
2018-08-12T06:25:10.490Z,32.6
2018-08-12T06:26:12.944Z,32.6
2018-08-12T06:27:15.103Z,32.6
2018-08-12T06:28:17.277Z,32.6
2018-08-12T06:29:19.470Z,32.6
2018-08-12T06:30:21.928Z,32.6
2018-08-12T06:31:24.505Z,32.6
2018-08-12T06:32:26.844Z,32.6
2018-08-12T06:33:29.309Z,32.6
2018-08-12T06:34:31.885Z,32.6
2018-08-12T06:35:34.138Z,32.6
2018-08-12T06:36:36.310Z,32.6
2018-08-12T06:37:38.764Z,32.6
2018-08-12T06:38:40.942Z,32.6
2018-08-12T06:39:42.850Z,32.6
2018-08-12T06:40:45.295Z,32.6
2018-08-12T06:41:47.758Z,32.6
2018-08-12T06:42:50.204Z,32.6
2018-08-12T06:43:52.348Z,32.6
2018-08-12T06:44:54.805Z,32.6
2018-08-12T06:45:56.722Z,32.6
2018-08-12T06:46:59.175Z,32.6
2018-08-12T06:48:01.628Z,32.6
2018-08-12T06:49:03.794Z,32.6
2018-08-12T06:50:06.237Z,32.5
2018-08-12T06:51:08.407Z,32.6
2018-08-12T06:52:10.307Z,32.5
2018-08-12T06:53:12.212Z,32.6
2018-08-12T06:54:14.384Z,32.5
2018-08-12T06:55:16.835Z,32.6
2018-08-12T06:56:19.289Z,32.5
2018-08-12T06:57:21.747Z,32.5
2018-08-12T06:58:24.225Z,32.6
2018-08-12T06:59:26.123Z,32.6
2018-08-12T07:00:28.629Z,32.5
2018-08-12T07:01:30.583Z,32.5
2018-08-12T07:02:33.047Z,32.5
2018-08-12T07:03:35.496Z,32.5
2018-08-12T07:04:37.945Z,32.5
2018-08-12T07:05:40.411Z,32.5
2018-08-12T07:06:42.859Z,32.5
2018-08-12T07:07:45.031Z,32.5
2018-08-12T07:08:47.219Z,32.5
2018-08-12T07:09:49.680Z,32.5
2018-08-12T07:10:52.141Z,32.5
2018-08-12T07:11:54.049Z,32.5
2018-08-12T07:12:56.512Z,32.5
2018-08-12T07:13:58.675Z,32.5
2018-08-12T07:15:00.563Z,32.5
2018-08-12T07:16:02.768Z,32.5
2018-08-12T07:17:05.203Z,32.5
2018-08-12T07:18:07.657Z,32.5
2018-08-12T07:19:10.099Z,32.5
2018-08-12T07:20:12.288Z,32.5
2018-08-12T07:21:14.729Z,32.5
2018-08-12T07:22:16.639Z,32.5
2018-08-12T07:23:18.805Z,32.5
2018-08-12T07:24:21.263Z,32.5
2018-08-12T07:25:23.707Z,32.5
2018-08-12T07:26:25.629Z,32.5
2018-08-12T07:27:28.081Z,32.5
2018-08-12T07:28:30.535Z,32.5
2018-08-12T07:29:32.436Z,32.5
2018-08-12T07:30:34.070Z,32.5
2018-08-12T07:31:36.523Z,32.5
2018-08-12T07:32:38.699Z,32.5
2018-08-12T07:33:40.880Z,32.5
2018-08-12T07:34:43.033Z,32.5
2018-08-12T07:35:45.221Z,32.5
2018-08-12T07:36:47.406Z,32.5
2018-08-12T07:37:49.557Z,32.5
2018-08-12T07:38:51.985Z,32.5
2018-08-12T07:39:54.164Z,32.5
2018-08-12T07:40:56.620Z,32.5
2018-08-12T07:41:58.797Z,32.5
2018-08-12T07:43:00.998Z,32.5
2018-08-12T07:44:03.187Z,32.5
2018-08-12T07:45:05.081Z,32.5
2018-08-12T07:46:07.527Z,32.5
2018-08-12T07:47:09.968Z,32.5
2018-08-12T07:48:12.212Z,32.5
2018-08-12T07:49:14.395Z,32.5
2018-08-12T07:50:16.849Z,32.5
2018-08-12T07:51:19.006Z,32.5
2018-08-12T07:52:20.886Z,32.5
2018-08-12T07:53:23.089Z,32.5
2018-08-12T07:54:25.276Z,32.5
2018-08-12T07:55:27.843Z,32.5
2018-08-12T07:56:30.095Z,32.5
2018-08-12T07:57:32.315Z,32.5
2018-08-12T07:58:34.757Z,32.5
2018-08-12T07:59:36.655Z,32.5
2018-08-12T08:00:39.107Z,32.5
2018-08-12T08:01:41.280Z,32.5
2018-08-12T08:02:43.462Z,32.5
2018-08-12T08:03:45.651Z,32.5
2018-08-12T08:04:48.093Z,32.5
2018-08-12T08:05:50.277Z,32.5
2018-08-12T08:06:52.453Z,32.5
2018-08-12T08:07:54.925Z,32.5
2018-08-12T08:08:57.098Z,32.5
2018-08-12T08:09:59.543Z,32.5
2018-08-12T08:11:01.152Z,32.5
2018-08-12T08:12:03.323Z,32.5
2018-08-12T08:13:05.494Z,32.5
2018-08-12T08:14:07.677Z,32.5
2018-08-12T08:15:09.868Z,32.5
2018-08-12T08:16:12.327Z,32.5
2018-08-12T08:17:14.506Z,32.5
2018-08-12T08:18:16.686Z,32.5
2018-08-12T08:19:18.873Z,32.5
2018-08-12T08:20:20.483Z,32.5
2018-08-12T08:21:22.641Z,32.5
2018-08-12T08:22:24.537Z,32.6
2018-08-12T08:23:26.720Z,32.6
2018-08-12T08:24:28.895Z,32.6
2018-08-12T08:25:31.455Z,32.5
2018-08-12T08:26:33.436Z,32.5
2018-08-12T08:27:35.880Z,32.5
2018-08-12T08:28:38.330Z,32.6
2018-08-12T08:29:40.778Z,32.5
2018-08-12T08:30:42.971Z,32.5
2018-08-12T08:31:46.203Z,32.5
2018-08-12T08:32:48.967Z,32.5
2018-08-12T08:33:51.156Z,32.5
2018-08-12T08:34:53.064Z,32.5
2018-08-12T08:35:55.517Z,32.5
2018-08-12T08:36:57.147Z,32.5
2018-08-12T08:37:59.652Z,32.5
2018-08-12T08:39:01.858Z,32.5
2018-08-12T08:40:04.296Z,32.6
2018-08-12T08:41:06.742Z,32.5
2018-08-12T08:42:08.916Z,32.5
2018-08-12T08:43:10.795Z,32.5
2018-08-12T08:44:12.973Z,32.5
2018-08-12T08:45:15.434Z,32.5
2018-08-12T08:46:17.895Z,32.5
2018-08-12T08:47:20.053Z,32.5
2018-08-12T08:48:22.492Z,32.5
2018-08-12T08:49:24.943Z,32.5
2018-08-12T08:50:27.135Z,32.5
2018-08-12T08:51:29.277Z,32.5
2018-08-12T08:52:31.729Z,32.5
2018-08-12T08:53:34.176Z,32.5
2018-08-12T08:54:36.078Z,32.5
2018-08-12T08:55:38.433Z,32.5
2018-08-12T08:56:41.023Z,32.5
2018-08-12T08:57:43.206Z,32.5
2018-08-12T08:58:45.110Z,32.5
2018-08-12T08:59:47.549Z,32.5
2018-08-12T09:00:49.426Z,32.5
2018-08-12T09:01:51.878Z,32.5
2018-08-12T09:02:54.374Z,32.5
2018-08-12T09:03:56.239Z,32.5
2018-08-12T09:04:58.688Z,32.5
2018-08-12T09:06:01.148Z,32.5
2018-08-12T09:07:03.317Z,32.6
2018-08-12T09:08:05.792Z,32.5
2018-08-12T09:09:09.573Z,32.5
2018-08-12T09:10:13.197Z,32.6
2018-08-12T09:11:15.673Z,32.5
2018-08-12T09:12:18.119Z,32.5
2018-08-12T09:13:20.565Z,32.5
2018-08-12T09:14:23.022Z,32.5
2018-08-12T09:15:24.903Z,32.5
2018-08-12T09:16:27.353Z,32.5
2018-08-12T09:17:29.235Z,32.5
2018-08-12T09:18:31.406Z,32.5
2018-08-12T09:19:33.855Z,32.5
2018-08-12T09:20:36.039Z,32.5
2018-08-12T09:21:38.185Z,32.5
2018-08-12T09:22:40.117Z,32.5
2018-08-12T09:23:42.580Z,32.5
2018-08-12T09:24:45.048Z,32.5
2018-08-12T09:25:47.491Z,32.5
2018-08-12T09:26:49.939Z,32.5
2018-08-12T09:27:52.143Z,32.5
2018-08-12T09:28:54.612Z,32.5
2018-08-12T09:29:57.081Z,32.5
2018-08-12T09:30:59.284Z,32.5
2018-08-12T09:32:01.459Z,32.5
2018-08-12T09:33:03.909Z,32.5
2018-08-12T09:34:06.065Z,32.5
2018-08-12T09:35:08.516Z,32.5
2018-08-12T09:36:10.987Z,32.5
2018-08-12T09:37:12.889Z,32.5
2018-08-12T09:38:15.338Z,32.5
2018-08-12T09:39:17.550Z,32.5
2018-08-12T09:40:19.772Z,32.5
2018-08-12T09:41:22.257Z,32.5
2018-08-12T09:42:24.136Z,32.5
2018-08-12T09:43:26.326Z,32.5
2018-08-12T09:44:28.799Z,32.5
2018-08-12T09:45:31.244Z,32.5
2018-08-12T09:46:33.696Z,32.5
2018-08-12T09:47:35.288Z,32.5
2018-08-12T09:48:37.739Z,32.5
2018-08-12T09:49:39.894Z,32.5
2018-08-12T09:50:42.071Z,32.5
2018-08-12T09:51:44.588Z,32.5
2018-08-12T09:52:47.588Z,32.5
2018-08-12T09:53:49.797Z,32.5
2018-08-12T09:54:51.963Z,32.5
2018-08-12T09:55:54.449Z,32.5
2018-08-12T09:56:56.885Z,32.5
2018-08-12T09:57:59.078Z,32.5
2018-08-12T09:59:00.951Z,32.5
2018-08-12T10:00:02.854Z,32.5
2018-08-12T10:01:05.020Z,32.5
2018-08-12T10:02:07.203Z,32.5
2018-08-12T10:03:09.647Z,32.5
2018-08-12T10:04:11.836Z,32.5
2018-08-12T10:05:14.035Z,32.5
2018-08-12T10:06:16.216Z,32.5
2018-08-12T10:07:18.769Z,32.5
2018-08-12T10:08:21.242Z,32.5
2018-08-12T10:09:23.697Z,32.5
2018-08-12T10:10:25.868Z,32.5
2018-08-12T10:11:28.327Z,32.5
2018-08-12T10:12:30.782Z,32.5
2018-08-12T10:13:32.658Z,32.5
2018-08-12T10:14:34.842Z,32.5
2018-08-12T10:15:36.873Z,32.5
2018-08-12T10:16:39.198Z,32.5
2018-08-12T10:17:41.649Z,32.5
2018-08-12T10:18:43.806Z,32.5
2018-08-12T10:19:46.256Z,32.5
2018-08-12T10:20:48.413Z,32.5
2018-08-12T10:21:50.043Z,32.5
2018-08-12T10:22:52.493Z,32.5
2018-08-12T10:23:54.406Z,32.5
2018-08-12T10:24:56.856Z,32.5
2018-08-12T10:25:59.298Z,32.5
2018-08-12T10:27:01.737Z,32.5
2018-08-12T10:28:04.184Z,32.5
2018-08-12T10:29:06.420Z,32.5
2018-08-12T10:30:08.914Z,32.5
2018-08-12T10:31:11.084Z,32.5
2018-08-12T10:32:13.533Z,32.5
2018-08-12T10:33:15.700Z,32.5
2018-08-12T10:34:18.159Z,32.5
2018-08-12T10:35:20.072Z,32.5
2018-08-12T10:36:22.522Z,32.5
2018-08-12T10:37:24.420Z,32.5
2018-08-12T10:38:26.590Z,32.5
2018-08-12T10:39:28.746Z,32.5
2018-08-12T10:40:30.918Z,32.5
2018-08-12T10:41:33.361Z,32.5
2018-08-12T10:42:35.821Z,32.5
2018-08-12T10:43:38.000Z,32.5
2018-08-12T10:44:39.892Z,32.5
2018-08-12T10:45:42.065Z,32.5
2018-08-12T10:46:44.250Z,32.5
2018-08-12T10:47:46.701Z,32.5
2018-08-12T10:48:48.848Z,32.5
2018-08-12T10:49:51.007Z,32.5
2018-08-12T10:50:53.328Z,32.5
2018-08-12T10:51:56.060Z,32.5
2018-08-12T10:52:57.979Z,32.5
2018-08-12T10:54:00.157Z,32.5
2018-08-12T10:55:02.615Z,32.5
2018-08-12T10:56:04.808Z,32.5
2018-08-12T10:57:06.989Z,32.5
2018-08-12T10:58:09.447Z,32.5
2018-08-12T10:59:11.921Z,32.5
2018-08-12T11:00:14.371Z,32.5
2018-08-12T11:01:16.554Z,32.5
2018-08-12T11:02:18.464Z,32.5
2018-08-12T11:03:20.371Z,32.5
2018-08-12T11:04:22.820Z,32.5
2018-08-12T11:05:25.281Z,32.5
2018-08-12T11:06:27.461Z,32.5
2018-08-12T11:07:30.016Z,32.5
2018-08-12T11:08:32.060Z,32.5
2018-08-12T11:09:33.969Z,32.5
2018-08-12T11:10:36.153Z,32.5
2018-08-12T11:11:38.598Z,32.6
2018-08-12T11:12:40.944Z,32.5
2018-08-12T11:13:42.986Z,32.6
2018-08-12T11:14:45.437Z,32.6
2018-08-12T11:15:47.626Z,32.5
2018-08-12T11:16:49.819Z,32.5
2018-08-12T11:17:52.255Z,32.6
2018-08-12T11:18:54.706Z,32.6
2018-08-12T11:19:56.318Z,32.6
2018-08-12T11:20:58.769Z,32.6
2018-08-12T11:22:01.224Z,32.6
2018-08-12T11:23:03.401Z,32.6
2018-08-12T11:24:05.568Z,32.6
2018-08-12T11:25:07.750Z,32.6
2018-08-12T11:26:09.931Z,32.6
2018-08-12T11:27:11.840Z,32.6
2018-08-12T11:28:14.047Z,32.6
2018-08-12T11:29:16.239Z,32.6
2018-08-12T11:30:18.417Z,32.6
2018-08-12T11:31:20.866Z,32.6
2018-08-12T11:32:22.750Z,32.6
2018-08-12T11:33:24.921Z,32.6
2018-08-12T11:34:27.117Z,32.6
2018-08-12T11:35:28.465Z,32.6
2018-08-12T11:36:30.642Z,32.6
2018-08-12T11:37:32.829Z,32.6
2018-08-12T11:38:34.771Z,32.6
2018-08-12T11:39:36.670Z,32.6
2018-08-12T11:40:38.561Z,32.6
2018-08-12T11:41:40.182Z,32.6
2018-08-12T11:42:42.627Z,32.6
2018-08-12T11:43:44.814Z,32.6
2018-08-12T11:44:47.250Z,32.6
2018-08-12T11:45:49.695Z,32.6
2018-08-12T11:46:51.339Z,32.6
2018-08-12T11:47:52.990Z,32.6
2018-08-12T11:48:55.447Z,32.6
2018-08-12T11:49:57.370Z,32.6
2018-08-12T11:50:59.521Z,32.6
2018-08-12T11:52:01.972Z,32.6
2018-08-12T11:53:04.140Z,32.6
2018-08-12T11:54:06.597Z,32.6
2018-08-12T11:55:08.803Z,32.6
2018-08-12T11:56:10.725Z,32.6
2018-08-12T11:57:13.184Z,32.6
2018-08-12T11:58:15.636Z,32.6
2018-08-12T11:59:18.095Z,32.6
2018-08-12T12:00:20.284Z,32.6
2018-08-12T12:01:22.184Z,32.6
2018-08-12T12:02:24.636Z,32.6
2018-08-12T12:03:26.551Z,32.6
2018-08-12T12:04:28.626Z,32.6
2018-08-12T12:05:31.310Z,32.6
2018-08-12T12:06:33.487Z,32.6
2018-08-12T12:07:35.943Z,32.6
2018-08-12T12:08:37.900Z,32.6
2018-08-12T12:09:40.342Z,32.6
2018-08-12T12:10:42.519Z,32.6
2018-08-12T12:11:44.963Z,32.6
2018-08-12T12:12:47.137Z,32.6
2018-08-12T12:13:49.333Z,32.6
2018-08-12T12:14:51.507Z,32.6
2018-08-12T12:15:53.686Z,32.6
2018-08-12T12:16:55.826Z,32.6
2018-08-12T12:17:58.276Z,32.6
2018-08-12T12:19:00.453Z,32.6
2018-08-12T12:20:02.903Z,32.6
2018-08-12T12:21:05.344Z,32.6
2018-08-12T12:22:07.787Z,32.6
2018-08-12T12:23:10.272Z,32.6
2018-08-12T12:24:12.428Z,32.6
2018-08-12T12:25:14.605Z,32.6
2018-08-12T12:26:16.773Z,32.6
2018-08-12T12:27:18.946Z,32.6
2018-08-12T12:28:21.136Z,32.6
2018-08-12T12:29:23.055Z,32.6
2018-08-12T12:30:25.232Z,32.6
2018-08-12T12:31:27.420Z,32.6
2018-08-12T12:32:29.615Z,32.6
2018-08-12T12:33:32.078Z,32.6
2018-08-12T12:34:34.529Z,32.6
2018-08-12T12:35:37.301Z,32.6
2018-08-12T12:36:39.966Z,32.6
2018-08-12T12:37:42.105Z,32.7
2018-08-12T12:38:43.737Z,32.7
2018-08-12T12:39:45.629Z,32.6
2018-08-12T12:40:48.091Z,32.6
2018-08-12T12:41:50.267Z,32.7
2018-08-12T12:42:52.675Z,32.6
2018-08-12T12:43:54.593Z,32.7
2018-08-12T12:44:57.040Z,32.7
2018-08-12T12:45:59.211Z,32.7
2018-08-12T12:47:01.671Z,32.7
2018-08-12T12:48:03.844Z,32.7
2018-08-12T12:49:06.037Z,32.7
2018-08-12T12:50:08.295Z,32.7
2018-08-12T12:51:10.857Z,32.7
2018-08-12T12:52:13.047Z,32.7
2018-08-12T12:53:15.207Z,32.7
2018-08-12T12:54:17.393Z,32.7
2018-08-12T12:55:19.902Z,32.7
2018-08-12T12:56:22.331Z,32.7
2018-08-12T12:57:24.624Z,32.7
2018-08-12T12:58:27.085Z,32.7
2018-08-12T12:59:29.260Z,32.7
2018-08-12T13:00:31.432Z,32.7
2018-08-12T13:01:33.624Z,32.7
2018-08-12T13:02:36.068Z,32.7
2018-08-12T13:03:38.250Z,32.7
2018-08-12T13:04:40.438Z,32.7
2018-08-12T13:05:42.603Z,32.7
2018-08-12T13:06:45.057Z,32.7
2018-08-12T13:07:47.521Z,32.7
2018-08-12T13:08:49.971Z,32.7
2018-08-12T13:09:52.426Z,32.7
2018-08-12T13:10:54.881Z,32.7
2018-08-12T13:11:57.320Z,32.7
2018-08-12T13:12:59.773Z,32.7
2018-08-12T13:14:01.685Z,32.7
2018-08-12T13:15:04.126Z,32.7
2018-08-12T13:16:06.325Z,32.7
2018-08-12T13:17:08.776Z,32.7
2018-08-12T13:18:10.697Z,32.7
2018-08-12T13:19:12.880Z,32.7
2018-08-12T13:20:15.333Z,32.7
2018-08-12T13:21:17.511Z,32.7
2018-08-12T13:22:19.410Z,32.7
2018-08-12T13:23:21.864Z,32.7
2018-08-12T13:24:23.769Z,32.7
2018-08-12T13:25:26.218Z,32.7
2018-08-12T13:26:28.383Z,32.7
2018-08-12T13:27:30.574Z,32.7
2018-08-12T13:28:33.058Z,32.7
2018-08-12T13:29:35.249Z,32.7
2018-08-12T13:30:37.157Z,32.7
2018-08-12T13:31:39.346Z,32.7
2018-08-12T13:32:41.790Z,32.7
2018-08-12T13:33:43.974Z,32.7
2018-08-12T13:34:46.429Z,32.7
2018-08-12T13:35:48.612Z,32.7
2018-08-12T13:36:51.075Z,32.7
2018-08-12T13:37:53.508Z,32.7
2018-08-12T13:38:55.684Z,32.7
2018-08-12T13:39:58.131Z,32.7
2018-08-12T13:41:00.307Z,32.7
2018-08-12T13:42:02.777Z,32.7
2018-08-12T13:43:05.234Z,32.7
2018-08-12T13:44:07.682Z,32.7
2018-08-12T13:45:09.845Z,32.7
2018-08-12T13:46:11.725Z,32.7
2018-08-12T13:47:13.904Z,32.7
2018-08-12T13:48:16.358Z,32.7
2018-08-12T13:49:18.889Z,32.7
2018-08-12T13:50:21.391Z,32.7
2018-08-12T13:51:23.853Z,32.7